sensor_id;sensor_type;location;lat;lon;timestamp;pressure;altitude;pressure_sealevel;temperature;humidity
4167;BME280;2097;51.104;7.150;2023-03-23T00:00:49;97825.00;;;10.84;100.00
4167;BME280;2097;51.104;7.150;2023-03-23T00:03:16;97820.63;;;10.85;100.00
4167;BME280;2097;51.104;7.150;2023-03-23T00:05:45;97810.16;;;10.86;100.00
4167;BME280;2097;51.104;7.150;2023-03-23T00:08:16;97807.53;;;10.86;100.00
4167;BME280;2097;51.104;7.150;2023-03-23T00:10:43;97815.09;;;10.89;100.00
4167;BME280;2097;51.104;7.150;2023-03-23T00:13:09;97807.09;;;10.92;100.00
4167;BME280;2097;51.104;7.150;2023-03-23T00:15:38;97807.09;;;10.92;100.00
4167;BME280;2097;51.104;7.150;2023-03-23T00:18:07;97747.66;;;10.55;100.00
4167;BME280;2097;51.104;7.150;2023-03-23T00:20:33;97799.31;;;10.92;100.00
4167;BME280;2097;51.104;7.150;2023-03-23T00:23:07;97809.44;;;10.95;100.00
4167;BME280;2097;51.104;7.150;2023-03-23T00:25:34;97792.09;;;10.96;100.00
4167;BME280;2097;51.104;7.150;2023-03-23T00:28:00;97791.16;;;10.97;100.00
4167;BME280;2097;51.104;7.150;2023-03-23T00:30:28;97793.41;;;11.01;100.00
4167;BME280;2097;51.104;7.150;2023-03-23T00:32:55;97791.41;;;11.05;100.00
4167;BME280;2097;51.104;7.150;2023-03-23T00:35:23;97790.56;;;11.04;100.00
4167;BME280;2097;51.104;7.150;2023-03-23T00:37:50;97787.03;;;11.05;100.00
4167;BME280;2097;51.104;7.150;2023-03-23T00:40:18;97781.38;;;11.00;100.00
4167;BME280;2097;51.104;7.150;2023-03-23T00:42:45;97792.00;;;11.08;100.00
4167;BME280;2097;51.104;7.150;2023-03-23T00:45:14;97784.94;;;11.10;100.00
4167;BME280;2097;51.104;7.150;2023-03-23T00:47:40;97785.88;;;11.09;100.00
4167;BME280;2097;51.104;7.150;2023-03-23T00:50:12;97775.94;;;11.03;100.00
4167;BME280;2097;51.104;7.150;2023-03-23T00:52:39;97775.34;;;11.11;100.00
4167;BME280;2097;51.104;7.150;2023-03-23T00:55:07;97766.53;;;11.13;100.00
4167;BME280;2097;51.104;7.150;2023-03-23T00:57:35;97771.72;;;11.13;100.00
4167;BME280;2097;51.104;7.150;2023-03-23T01:00:03;97774.31;;;11.13;100.00
4167;BME280;2097;51.104;7.150;2023-03-23T01:02:34;97775.97;;;11.14;100.00
4167;BME280;2097;51.104;7.150;2023-03-23T01:05:01;97769.13;;;11.13;100.00
4167;BME280;2097;51.104;7.150;2023-03-23T01:07:28;97759.44;;;11.15;100.00
4167;BME280;2097;51.104;7.150;2023-03-23T01:09:56;97620.16;;;10.26;100.00
4167;BME280;2097;51.104;7.150;2023-03-23T01:12:25;97780.53;;;11.11;100.00
4167;BME280;2097;51.104;7.150;2023-03-23T01:14:54;97771.22;;;11.08;100.00
4167;BME280;2097;51.104;7.150;2023-03-23T01:17:20;97762.03;;;11.04;100.00
4167;BME280;2097;51.104;7.150;2023-03-23T01:19:47;97758.72;;;11.02;100.00
4167;BME280;2097;51.104;7.150;2023-03-23T01:22:14;97757.19;;;11.00;100.00
4167;BME280;2097;51.104;7.150;2023-03-23T01:24:41;97759.16;;;10.96;100.00
4167;BME280;2097;51.104;7.150;2023-03-23T01:27:08;97755.63;;;10.97;100.00
4167;BME280;2097;51.104;7.150;2023-03-23T01:29:35;97758.22;;;10.97;100.00
4167;BME280;2097;51.104;7.150;2023-03-23T01:32:04;97754.69;;;10.98;100.00
4167;BME280;2097;51.104;7.150;2023-03-23T01:34:31;97745.38;;;10.96;100.00
4167;BME280;2097;51.104;7.150;2023-03-23T01:36:57;97754.69;;;10.98;100.00
4167;BME280;2097;51.104;7.150;2023-03-23T01:39:24;97749.72;;;10.95;100.00
4167;BME280;2097;51.104;7.150;2023-03-23T01:41:51;97640.19;;;10.24;100.00
4167;BME280;2097;51.104;7.150;2023-03-23T01:47:23;97758.47;;;10.83;100.00
4167;BME280;2097;51.104;7.150;2023-03-23T01:49:52;97751.94;;;10.78;100.00
4167;BME280;2097;51.104;7.150;2023-03-23T01:52:22;97753.25;;;10.72;100.00
4167;BME280;2097;51.104;7.150;2023-03-23T01:54:52;97758.06;;;10.66;100.00
4167;BME280;2097;51.104;7.150;2023-03-23T01:57:23;97747.19;;;10.61;100.00
4167;BME280;2097;51.104;7.150;2023-03-23T01:59:54;97751.09;;;10.55;100.00
4167;BME280;2097;51.104;7.150;2023-03-23T02:02:25;97737.63;;;10.50;100.00
4167;BME280;2097;51.104;7.150;2023-03-23T02:04:55;97569.47;;;9.43;100.00
4167;BME280;2097;51.104;7.150;2023-03-23T02:07:25;97738.31;;;10.41;100.00
4167;BME280;2097;51.104;7.150;2023-03-23T02:09:52;97739.25;;;10.40;100.00
4167;BME280;2097;51.104;7.150;2023-03-23T02:12:19;97736.88;;;10.37;100.00
4167;BME280;2097;51.104;7.150;2023-03-23T02:14:46;97738.75;;;10.35;100.00
4167;BME280;2097;51.104;7.150;2023-03-23T02:17:20;97738.97;;;10.32;100.00
4167;BME280;2097;51.104;7.150;2023-03-23T02:23:13;97759.34;;;10.26;100.00
4167;BME280;2097;51.104;7.150;2023-03-23T02:26:03;97670.44;;;9.90;100.00
4167;BME280;2097;51.104;7.150;2023-03-23T02:28:51;97722.91;;;10.17;100.00
4167;BME280;2097;51.104;7.150;2023-03-23T02:31:30;97723.13;;;10.14;100.00
4167;BME280;2097;51.104;7.150;2023-03-23T02:34:09;97715.56;;;10.11;100.00
4167;BME280;2097;51.104;7.150;2023-03-23T02:36:40;97705.41;;;10.08;100.00
4167;BME280;2097;51.104;7.150;2023-03-23T02:39:14;97687.50;;;10.05;100.00
4167;BME280;2097;51.104;7.150;2023-03-23T02:41:45;97688.53;;;10.02;100.00
4167;BME280;2097;51.104;7.150;2023-03-23T02:44:15;97672.16;;;10.02;100.00
4167;BME280;2097;51.104;7.150;2023-03-23T02:46:43;97680.13;;;9.99;100.00
4167;BME280;2097;51.104;7.150;2023-03-23T02:49:14;97676.81;;;9.97;100.00
4167;BME280;2097;51.104;7.150;2023-03-23T02:51:44;97664.75;;;9.85;100.00
4167;BME280;2097;51.104;7.150;2023-03-23T02:54:13;97701.44;;;9.91;100.00
4167;BME280;2097;51.104;7.150;2023-03-23T02:56:42;97684.31;;;9.89;100.00
4167;BME280;2097;51.104;7.150;2023-03-23T02:59:10;97665.59;;;9.85;100.00
4167;BME280;2097;51.104;7.150;2023-03-23T03:01:50;97673.47;;;9.84;100.00
4167;BME280;2097;51.104;7.150;2023-03-23T03:04:22;97670.19;;;9.82;100.00
4167;BME280;2097;51.104;7.150;2023-03-23T03:06:58;97678.06;;;9.80;100.00
4167;BME280;2097;51.104;7.150;2023-03-23T03:09:33;97678.06;;;9.80;100.00
4167;BME280;2097;51.104;7.150;2023-03-23T03:12:07;97660.47;;;9.73;100.00
4167;BME280;2097;51.104;7.150;2023-03-23T03:14:39;97683.22;;;9.80;100.00
4167;BME280;2097;51.104;7.150;2023-03-23T03:17:17;97673.47;;;9.84;100.00
4167;BME280;2097;51.104;7.150;2023-03-23T03:19:48;97672.44;;;9.86;100.00
4167;BME280;2097;51.104;7.150;2023-03-23T03:22:17;97669.94;;;9.85;100.00
4167;BME280;2097;51.104;7.150;2023-03-23T03:24:46;97669.84;;;9.86;100.00
4167;BME280;2097;51.104;7.150;2023-03-23T03:27:15;97666.31;;;9.87;100.00
4167;BME280;2097;51.104;7.150;2023-03-23T03:29:46;97679.06;;;9.90;100.00
4167;BME280;2097;51.104;7.150;2023-03-23T03:32:19;97671.16;;;9.92;100.00
4167;BME280;2097;51.104;7.150;2023-03-23T03:34:49;97677.97;;;9.93;100.00
4167;BME280;2097;51.104;7.150;2023-03-23T03:37:18;97683.88;;;9.95;100.00
4167;BME280;2097;51.104;7.150;2023-03-23T03:39:46;97686.25;;;9.98;100.00
4167;BME280;2097;51.104;7.150;2023-03-23T03:42:13;97680.34;;;9.96;100.00
4167;BME280;2097;51.104;7.150;2023-03-23T03:44:40;97678.81;;;9.93;100.00
4167;BME280;2097;51.104;7.150;2023-03-23T03:47:07;97683.28;;;9.91;100.00
4167;BME280;2097;51.104;7.150;2023-03-23T03:49:33;97683.16;;;9.93;100.00
4167;BME280;2097;51.104;7.150;2023-03-23T03:52:02;97681.28;;;9.95;100.00
4167;BME280;2097;51.104;7.150;2023-03-23T03:54:28;97695.91;;;9.96;100.00
4167;BME280;2097;51.104;7.150;2023-03-23T03:56:55;97701.81;;;9.98;100.00
4167;BME280;2097;51.104;7.150;2023-03-23T03:59:23;97703.47;;;9.99;100.00
4167;BME280;2097;51.104;7.150;2023-03-23T04:01:51;97705.16;;;10.00;100.00
4167;BME280;2097;51.104;7.150;2023-03-23T04:04:19;97700.81;;;10.00;100.00
4167;BME280;2097;51.104;7.150;2023-03-23T04:06:47;97703.47;;;9.99;100.00
4167;BME280;2097;51.104;7.150;2023-03-23T04:09:15;97689.59;;;10.00;100.00
4167;BME280;2097;51.104;7.150;2023-03-23T04:11:42;97695.69;;;9.99;100.00
4167;BME280;2097;51.104;7.150;2023-03-23T04:14:09;97696.84;;;9.95;100.00
4167;BME280;2097;51.104;7.150;2023-03-23T04:16:36;97688.25;;;9.94;100.00
4167;BME280;2097;51.104;7.150;2023-03-23T04:19:03;97693.53;;;9.93;100.00
4167;BME280;2097;51.104;7.150;2023-03-23T04:21:30;97692.72;;;9.92;100.00
4167;BME280;2097;51.104;7.150;2023-03-23T04:23:57;97697.06;;;9.92;100.00
4167;BME280;2097;51.104;7.150;2023-03-23T04:26:27;97691.78;;;9.93;100.00
4167;BME280;2097;51.104;7.150;2023-03-23T04:28:55;97690.13;;;9.92;100.00
4167;BME280;2097;51.104;7.150;2023-03-23T04:31:22;97693.66;;;9.91;100.00
4167;BME280;2097;51.104;7.150;2023-03-23T04:33:50;97698.13;;;9.89;100.00
4167;BME280;2097;51.104;7.150;2023-03-23T04:36:18;97691.28;;;9.88;100.00
4167;BME280;2097;51.104;7.150;2023-03-23T04:38:48;97697.41;;;9.87;100.00
4167;BME280;2097;51.104;7.150;2023-03-23T04:41:15;97689.41;;;9.90;100.00
4167;BME280;2097;51.104;7.150;2023-03-23T04:43:43;97682.56;;;9.89;100.00
4167;BME280;2097;51.104;7.150;2023-03-23T04:46:10;97702.47;;;9.89;100.00
4167;BME280;2097;51.104;7.150;2023-03-23T04:48:37;97697.50;;;9.86;100.00
4167;BME280;2097;51.104;7.150;2023-03-23T04:51:05;97666.91;;;9.67;100.00
4167;BME280;2097;51.104;7.150;2023-03-23T04:53:32;97693.25;;;9.85;100.00
4167;BME280;2097;51.104;7.150;2023-03-23T04:55:59;97699.38;;;9.84;100.00
4167;BME280;2097;51.104;7.150;2023-03-23T04:58:27;97692.44;;;9.84;100.00
4167;BME280;2097;51.104;7.150;2023-03-23T05:00:56;97701.03;;;9.85;100.00
4167;BME280;2097;51.104;7.150;2023-03-23T05:03:23;97702.59;;;9.87;100.00
4167;BME280;2097;51.104;7.150;2023-03-23T05:05:50;97697.06;;;9.92;100.00
4167;BME280;2097;51.104;7.150;2023-03-23T05:08:19;97695.91;;;9.96;100.00
4167;BME280;2097;51.104;7.150;2023-03-23T05:10:52;97694.97;;;9.97;100.00
4167;BME280;2097;51.104;7.150;2023-03-23T05:13:20;97708.63;;;9.99;100.00
4167;BME280;2097;51.104;7.150;2023-03-23T05:15:47;97708.47;;;10.02;100.00
4167;BME280;2097;51.104;7.150;2023-03-23T05:18:15;97709.16;;;10.04;100.00
4167;BME280;2097;51.104;7.150;2023-03-23T05:20:42;97711.75;;;10.04;100.00
4167;BME280;2097;51.104;7.150;2023-03-23T05:23:12;97712.34;;;10.07;100.00
4167;BME280;2097;51.104;7.150;2023-03-23T05:25:39;97708.00;;;10.08;100.00
4167;BME280;2097;51.104;7.150;2023-03-23T05:28:06;97711.53;;;10.07;100.00
4167;BME280;2097;51.104;7.150;2023-03-23T05:30:34;97716.72;;;10.07;100.00
4167;BME280;2097;51.104;7.150;2023-03-23T05:33:01;97709.66;;;10.09;100.00
4167;BME280;2097;51.104;7.150;2023-03-23T05:35:30;97717.44;;;10.09;100.00
4167;BME280;2097;51.104;7.150;2023-03-23T05:37:57;97715.66;;;10.09;100.00
4167;BME280;2097;51.104;7.150;2023-03-23T05:40:24;97710.38;;;10.11;100.00
4167;BME280;2097;51.104;7.150;2023-03-23T05:42:53;97712.03;;;10.12;100.00
4167;BME280;2097;51.104;7.150;2023-03-23T05:45:21;97718.97;;;10.11;100.00
4167;BME280;2097;51.104;7.150;2023-03-23T05:47:49;97720.63;;;10.12;100.00
4167;BME280;2097;51.104;7.150;2023-03-23T05:50:16;97720.63;;;10.12;100.00
4167;BME280;2097;51.104;7.150;2023-03-23T05:52:45;97718.97;;;10.11;100.00
4167;BME280;2097;51.104;7.150;2023-03-23T05:55:12;97723.94;;;10.14;100.00
4167;BME280;2097;51.104;7.150;2023-03-23T05:57:39;97722.06;;;10.16;100.00
4167;BME280;2097;51.104;7.150;2023-03-23T06:00:07;97726.31;;;10.17;100.00
4167;BME280;2097;51.104;7.150;2023-03-23T06:02:46;97722.69;;;10.20;100.00
4167;BME280;2097;51.104;7.150;2023-03-23T06:05:14;97722.56;;;10.21;100.00
4167;BME280;2097;51.104;7.150;2023-03-23T06:07:45;97721.72;;;10.20;100.00
4167;BME280;2097;51.104;7.150;2023-03-23T06:10:13;97728.56;;;10.21;100.00
4167;BME280;2097;51.104;7.150;2023-03-23T06:12:40;97727.63;;;10.22;100.00
4167;BME280;2097;51.104;7.150;2023-03-23T06:15:08;97735.28;;;10.24;100.00
4167;BME280;2097;51.104;7.150;2023-03-23T06:17:36;97727.38;;;10.25;100.00
4167;BME280;2097;51.104;7.150;2023-03-23T06:20:04;97750.41;;;10.30;100.00
4167;BME280;2097;51.104;7.150;2023-03-23T06:22:35;97743.22;;;10.33;100.00
4167;BME280;2097;51.104;7.150;2023-03-23T06:25:05;97735.00;;;10.39;100.00
4167;BME280;2097;51.104;7.150;2023-03-23T06:27:32;97741.38;;;10.46;100.00
4167;BME280;2097;51.104;7.150;2023-03-23T06:30:01;97751.41;;;10.51;100.00
4167;BME280;2097;51.104;7.150;2023-03-23T06:32:30;97754.63;;;10.54;100.00
4167;BME280;2097;51.104;7.150;2023-03-23T06:34:58;97750.38;;;10.53;100.00
4167;BME280;2097;51.104;7.150;2023-03-23T06:37:25;97750.75;;;10.60;100.00
4167;BME280;2097;51.104;7.150;2023-03-23T06:39:52;97755.78;;;10.61;100.00
4167;BME280;2097;51.104;7.150;2023-03-23T06:42:22;97752.16;;;10.64;100.00
4167;BME280;2097;51.104;7.150;2023-03-23T06:44:49;97757.22;;;10.65;100.00
4167;BME280;2097;51.104;7.150;2023-03-23T06:47:17;97751.81;;;10.68;100.00
4167;BME280;2097;51.104;7.150;2023-03-23T06:49:43;97768.00;;;10.72;100.00
4167;BME280;2097;51.104;7.150;2023-03-23T06:52:10;97758.91;;;10.77;100.00
4167;BME280;2097;51.104;7.150;2023-03-23T06:54:37;97766.25;;;10.83;100.00
4167;BME280;2097;51.104;7.150;2023-03-23T06:57:04;97758.94;;;10.88;100.00
4167;BME280;2097;51.104;7.150;2023-03-23T06:59:33;97771.56;;;10.93;100.00
4167;BME280;2097;51.104;7.150;2023-03-23T07:01:59;97767.66;;;10.98;100.00
4167;BME280;2097;51.104;7.150;2023-03-23T07:04:27;97768.28;;;11.02;100.00
4167;BME280;2097;51.104;7.150;2023-03-23T07:06:53;97767.34;;;11.03;100.00
4167;BME280;2097;51.104;7.150;2023-03-23T07:09:21;97777.81;;;11.01;100.00
4167;BME280;2097;51.104;7.150;2023-03-23T07:11:48;97774.41;;;11.01;100.00
4167;BME280;2097;51.104;7.150;2023-03-23T07:14:17;97778.75;;;11.00;100.00
4167;BME280;2097;51.104;7.150;2023-03-23T07:16:45;97778.75;;;11.00;100.00
4167;BME280;2097;51.104;7.150;2023-03-23T07:19:12;97781.13;;;11.03;100.00
4167;BME280;2097;51.104;7.150;2023-03-23T07:21:38;97765.31;;;10.95;100.00
4167;BME280;2097;51.104;7.150;2023-03-23T07:24:09;97775.00;;;11.04;100.00
4167;BME280;2097;51.104;7.150;2023-03-23T07:26:37;97780.19;;;11.04;100.00
4167;BME280;2097;51.104;7.150;2023-03-23T07:29:03;97773.13;;;11.06;100.00
4167;BME280;2097;51.104;7.150;2023-03-23T07:31:30;97774.53;;;11.10;100.00
4167;BME280;2097;51.104;7.150;2023-03-23T07:33:58;97781.16;;;11.14;100.00
4167;BME280;2097;51.104;7.150;2023-03-23T07:36:26;97773.84;;;11.19;100.00
4167;BME280;2097;51.104;7.150;2023-03-23T07:38:53;97784.81;;;11.23;100.00
4167;BME280;2097;51.104;7.150;2023-03-23T07:41:21;97778.59;;;11.25;100.00
4167;BME280;2097;51.104;7.150;2023-03-23T07:43:48;97770.44;;;11.30;100.00
4167;BME280;2097;51.104;7.150;2023-03-23T07:46:15;97780.56;;;11.32;100.00
4167;BME280;2097;51.104;7.150;2023-03-23T07:48:42;97774.31;;;11.35;100.00
4167;BME280;2097;51.104;7.150;2023-03-23T07:51:10;97775.03;;;11.37;100.00
4167;BME280;2097;51.104;7.150;2023-03-23T07:53:37;97767.00;;;11.40;100.00
4167;BME280;2097;51.104;7.150;2023-03-23T07:56:05;97778.56;;;11.47;100.00
4167;BME280;2097;51.104;7.150;2023-03-23T07:58:32;97778.09;;;11.53;100.00
4167;BME280;2097;51.104;7.150;2023-03-23T08:00:59;97771.63;;;11.58;100.00
4167;BME280;2097;51.104;7.150;2023-03-23T08:03:26;97769.50;;;11.63;100.00
4167;BME280;2097;51.104;7.150;2023-03-23T08:05:53;97775.03;;;11.70;100.00
4167;BME280;2097;51.104;7.150;2023-03-23T08:08:21;97761.84;;;11.62;100.00
4167;BME280;2097;51.104;7.150;2023-03-23T08:10:48;97777.06;;;11.77;100.00
4167;BME280;2097;51.104;7.150;2023-03-23T08:13:15;97786.38;;;11.80;100.00
4167;BME280;2097;51.104;7.150;2023-03-23T08:15:42;97779.50;;;11.79;100.00
4167;BME280;2097;51.104;7.150;2023-03-23T08:18:09;97778.56;;;11.80;100.00
4167;BME280;2097;51.104;7.150;2023-03-23T08:20:37;97781.78;;;11.83;100.00
4167;BME280;2097;51.104;7.150;2023-03-23T08:23:05;97782.44;;;11.85;100.00
4167;BME280;2097;51.104;7.150;2023-03-23T08:25:34;97775.25;;;11.89;100.00
4167;BME280;2097;51.104;7.150;2023-03-23T08:28:01;97780.44;;;11.89;100.00
4167;BME280;2097;51.104;7.150;2023-03-23T08:30:29;97782.09;;;11.90;100.00
4167;BME280;2097;51.104;7.150;2023-03-23T08:32:58;97787.16;;;11.91;100.00
4167;BME280;2097;51.104;7.150;2023-03-23T08:35:26;97787.06;;;11.93;100.00
4167;BME280;2097;51.104;7.150;2023-03-23T08:37:53;97790.38;;;11.95;100.00
4167;BME280;2097;51.104;7.150;2023-03-23T08:40:22;97793.44;;;12.00;100.00
4167;BME280;2097;51.104;7.150;2023-03-23T08:42:51;97791.88;;;12.08;100.00
4167;BME280;2097;51.104;7.150;2023-03-23T08:45:20;97794.00;;;12.14;100.00
4167;BME280;2097;51.104;7.150;2023-03-23T08:47:48;97795.41;;;12.18;99.61
4167;BME280;2097;51.104;7.150;2023-03-23T08:50:19;97788.88;;;12.24;99.61
4167;BME280;2097;51.104;7.150;2023-03-23T08:52:46;97780.56;;;12.30;98.97
4167;BME280;2097;51.104;7.150;2023-03-23T08:55:15;97797.00;;;12.30;99.11
4167;BME280;2097;51.104;7.150;2023-03-23T08:57:43;97791.78;;;12.30;98.48
4167;BME280;2097;51.104;7.150;2023-03-23T09:00:14;97756.91;;;12.01;98.28
4167;BME280;2097;51.104;7.150;2023-03-23T09:02:43;97805.88;;;12.28;98.16
4167;BME280;2097;51.104;7.150;2023-03-23T09:05:10;97816.53;;;12.25;98.14
4167;BME280;2097;51.104;7.150;2023-03-23T09:07:38;97813.47;;;12.20;97.82
4167;BME280;2097;51.104;7.150;2023-03-23T09:10:07;97813.84;;;12.15;98.02
4167;BME280;2097;51.104;7.150;2023-03-23T09:12:34;97814.91;;;12.13;97.94
4167;BME280;2097;51.104;7.150;2023-03-23T09:15:02;97815.38;;;12.18;97.76
4167;BME280;2097;51.104;7.150;2023-03-23T09:17:35;97817.47;;;12.24;97.27
4167;BME280;2097;51.104;7.150;2023-03-23T09:20:04;97818.91;;;12.28;97.34
4167;BME280;2097;51.104;7.150;2023-03-23T09:22:36;97823.00;;;12.30;96.96
4167;BME280;2097;51.104;7.150;2023-03-23T09:25:04;97834.25;;;12.31;96.88
4167;BME280;2097;51.104;7.150;2023-03-23T09:27:31;97830.72;;;12.32;96.53
4167;BME280;2097;51.104;7.150;2023-03-23T09:29:58;97825.50;;;12.32;96.41
4167;BME280;2097;51.104;7.150;2023-03-23T09:32:26;97821.00;;;12.34;95.66
4167;BME280;2097;51.104;7.150;2023-03-23T09:34:54;97833.66;;;12.38;95.79
4167;BME280;2097;51.104;7.150;2023-03-23T09:37:21;97829.72;;;12.44;94.93
4167;BME280;2097;51.104;7.150;2023-03-23T09:39:48;97826.16;;;12.45;94.54
4167;BME280;2097;51.104;7.150;2023-03-23T09:42:35;97830.78;;;12.41;94.94
4167;BME280;2097;51.104;7.150;2023-03-23T09:45:15;97835.88;;;12.43;94.56
4167;BME280;2097;51.104;7.150;2023-03-23T09:47:54;97848.63;;;12.46;94.48
4167;BME280;2097;51.104;7.150;2023-03-23T09:50:27;97848.63;;;12.46;94.33
4167;BME280;2097;51.104;7.150;2023-03-23T09:53:00;97846.16;;;12.44;94.12
4167;BME280;2097;51.104;7.150;2023-03-23T09:55:28;97843.91;;;12.40;94.11
4167;BME280;2097;51.104;7.150;2023-03-23T09:57:59;97797.88;;;12.09;94.03
4167;BME280;2097;51.104;7.150;2023-03-23T10:00:32;97836.72;;;12.32;93.63
4167;BME280;2097;51.104;7.150;2023-03-23T10:03:05;97841.13;;;12.32;93.37
4167;BME280;2097;51.104;7.150;2023-03-23T10:05:36;97841.13;;;12.32;93.17
4167;BME280;2097;51.104;7.150;2023-03-23T10:08:09;97834.25;;;12.31;93.30
4167;BME280;2097;51.104;7.150;2023-03-23T10:10:45;97835.91;;;12.32;93.33
4167;BME280;2097;51.104;7.150;2023-03-23T10:13:22;97844.66;;;12.31;92.44
4167;BME280;2097;51.104;7.150;2023-03-23T10:15:54;97830.72;;;12.32;92.19
4167;BME280;2097;51.104;7.150;2023-03-23T10:18:26;97833.06;;;12.35;92.11
4167;BME280;2097;51.104;7.150;2023-03-23T10:20:57;97832.13;;;12.36;91.52
4167;BME280;2097;51.104;7.150;2023-03-23T10:23:37;97815.94;;;12.21;91.53
4167;BME280;2097;51.104;7.150;2023-03-23T10:26:12;97832.84;;;12.38;91.25
4167;BME280;2097;51.104;7.150;2023-03-23T10:28:46;97849.25;;;12.38;91.08
4167;BME280;2097;51.104;7.150;2023-03-23T10:31:18;97834.34;;;12.40;90.74
4167;BME280;2097;51.104;7.150;2023-03-23T10:33:48;97814.84;;;12.35;90.34
4167;BME280;2097;51.104;7.150;2023-03-23T10:36:20;97837.91;;;12.39;90.55
4167;BME280;2097;51.104;7.150;2023-03-23T10:38:55;97790.09;;;12.09;89.99
4167;BME280;2097;51.104;7.150;2023-03-23T10:41:23;97844.44;;;12.34;89.64
4167;BME280;2097;51.104;7.150;2023-03-23T10:43:50;97836.72;;;12.32;89.67
4167;BME280;2097;51.104;7.150;2023-03-23T10:46:29;97835.00;;;12.22;89.86
4167;BME280;2097;51.104;7.150;2023-03-23T10:49:00;97802.81;;;11.80;90.52
4167;BME280;2097;51.104;7.150;2023-03-23T10:51:33;97850.97;;;11.95;91.27
4167;BME280;2097;51.104;7.150;2023-03-23T10:54:02;97855.00;;;11.88;92.28
4167;BME280;2097;51.104;7.150;2023-03-23T10:56:35;97833.53;;;11.64;93.26
4167;BME280;2097;51.104;7.150;2023-03-23T10:59:11;97874.28;;;11.75;94.33
4167;BME280;2097;51.104;7.150;2023-03-23T11:01:42;97852.28;;;11.68;95.06
4167;BME280;2097;51.104;7.150;2023-03-23T11:04:15;97855.38;;;11.62;95.50
4167;BME280;2097;51.104;7.150;2023-03-23T11:06:46;97851.47;;;11.56;96.10
4167;BME280;2097;51.104;7.150;2023-03-23T11:09:15;97862.69;;;11.57;96.75
4167;BME280;2097;51.104;7.150;2023-03-23T11:11:48;97872.25;;;11.56;97.19
4167;BME280;2097;51.104;7.150;2023-03-23T11:14:18;97882.03;;;11.53;97.46
4167;BME280;2097;51.104;7.150;2023-03-23T11:17:05;97871.16;;;11.48;98.65
4167;BME280;2097;51.104;7.150;2023-03-23T11:19:53;97861.72;;;11.47;98.70
4167;BME280;2097;51.104;7.150;2023-03-23T11:22:25;97855.22;;;11.41;99.56
4167;BME280;2097;51.104;7.150;2023-03-23T11:24:54;97854.38;;;11.41;100.00
4167;BME280;2097;51.104;7.150;2023-03-23T11:27:23;97836.19;;;11.41;100.00
4167;BME280;2097;51.104;7.150;2023-03-23T11:29:52;97823.19;;;11.30;100.00
4167;BME280;2097;51.104;7.150;2023-03-23T11:32:24;97828.41;;;11.41;100.00
4167;BME280;2097;51.104;7.150;2023-03-23T11:34:56;97824.75;;;11.32;100.00
4167;BME280;2097;51.104;7.150;2023-03-23T11:37:29;97835.25;;;11.42;100.00
4167;BME280;2097;51.104;7.150;2023-03-23T11:40:00;97826.28;;;11.46;100.00
4167;BME280;2097;51.104;7.150;2023-03-23T11:42:36;97836.31;;;11.50;100.00
4167;BME280;2097;51.104;7.150;2023-03-23T11:45:15;97832.56;;;11.54;100.00
4167;BME280;2097;51.104;7.150;2023-03-23T11:47:49;97831.00;;;11.52;100.00
4167;BME280;2097;51.104;7.150;2023-03-23T11:50:19;97840.69;;;11.50;100.00
4167;BME280;2097;51.104;7.150;2023-03-23T11:52:52;97836.31;;;11.50;100.00
4167;BME280;2097;51.104;7.150;2023-03-23T11:55:25;97845.88;;;11.50;100.00
4167;BME280;2097;51.104;7.150;2023-03-23T11:57:55;97846.13;;;11.47;100.00
4167;BME280;2097;51.104;7.150;2023-03-23T12:00:23;97842.56;;;11.48;100.00
4167;BME280;2097;51.104;7.150;2023-03-23T12:03:00;97842.00;;;11.44;100.00
4167;BME280;2097;51.104;7.150;2023-03-23T12:05:40;97852.13;;;11.36;100.00
4167;BME280;2097;51.104;7.150;2023-03-23T12:08:22;97860.63;;;11.28;100.00
4167;BME280;2097;51.104;7.150;2023-03-23T12:10:56;97862.38;;;11.16;100.00
4167;BME280;2097;51.104;7.150;2023-03-23T12:13:39;97861.03;;;11.00;100.00
4167;BME280;2097;51.104;7.150;2023-03-23T12:16:21;97864.41;;;10.89;100.00
4167;BME280;2097;51.104;7.150;2023-03-23T12:18:56;97894.22;;;10.84;100.00
4167;BME280;2097;51.104;7.150;2023-03-23T12:21:36;97883.03;;;10.83;100.00
4167;BME280;2097;51.104;7.150;2023-03-23T12:24:15;97872.22;;;11.00;100.00
4167;BME280;2097;51.104;7.150;2023-03-23T12:26:50;97858.13;;;11.37;100.00
4167;BME280;2097;51.104;7.150;2023-03-23T12:29:43;97859.03;;;11.92;100.00
4167;BME280;2097;51.104;7.150;2023-03-23T12:32:33;97868.97;;;12.41;100.00
4167;BME280;2097;51.104;7.150;2023-03-23T12:35:13;97865.03;;;12.57;100.00
4167;BME280;2097;51.104;7.150;2023-03-23T12:37:53;97859.41;;;12.41;100.00
4167;BME280;2097;51.104;7.150;2023-03-23T12:40:38;97866.06;;;12.23;100.00
4167;BME280;2097;51.104;7.150;2023-03-23T12:43:15;97864.81;;;11.96;100.00
4167;BME280;2097;51.104;7.150;2023-03-23T12:46:02;97853.72;;;11.83;100.00
4167;BME280;2097;51.104;7.150;2023-03-23T12:48:33;97861.28;;;11.75;100.00
4167;BME280;2097;51.104;7.150;2023-03-23T12:51:11;97870.84;;;11.74;100.00
4167;BME280;2097;51.104;7.150;2023-03-23T12:53:47;97866.94;;;11.80;100.00
4167;BME280;2097;51.104;7.150;2023-03-23T12:56:22;97866.00;;;11.92;100.00
4167;BME280;2097;51.104;7.150;2023-03-23T12:58:54;97857.81;;;12.18;100.00
4167;BME280;2097;51.104;7.150;2023-03-23T13:01:28;97870.38;;;12.55;100.00
4167;BME280;2097;51.104;7.150;2023-03-23T13:03:59;97854.50;;;12.90;100.00
4167;BME280;2097;51.104;7.150;2023-03-23T13:06:29;97846.75;;;13.10;100.00
4167;BME280;2097;51.104;7.150;2023-03-23T13:09:02;97824.09;;;12.90;100.00
4167;BME280;2097;51.104;7.150;2023-03-23T13:11:33;97871.44;;;13.16;100.00
4167;BME280;2097;51.104;7.150;2023-03-23T13:14:10;97844.66;;;13.25;100.00
4167;BME280;2097;51.104;7.150;2023-03-23T13:16:48;97877.47;;;13.16;100.00
4167;BME280;2097;51.104;7.150;2023-03-23T13:19:22;97867.28;;;12.93;100.00
4167;BME280;2097;51.104;7.150;2023-03-23T13:21:59;97846.66;;;12.69;100.00
4167;BME280;2097;51.104;7.150;2023-03-23T13:24:32;97835.84;;;12.53;100.00
4167;BME280;2097;51.104;7.150;2023-03-23T13:27:04;97822.66;;;12.35;100.00
4167;BME280;2097;51.104;7.150;2023-03-23T13:29:32;97824.81;;;12.19;100.00
4167;BME280;2097;51.104;7.150;2023-03-23T13:32:06;97815.84;;;12.12;100.00
4167;BME280;2097;51.104;7.150;2023-03-23T13:34:38;97822.38;;;12.06;100.00
4167;BME280;2097;51.104;7.150;2023-03-23T13:37:10;97823.78;;;11.99;100.00